createdAt,value
2017-11-26T00:01:00.964Z,60.4
2017-11-26T00:02:22.436Z,60.4
2017-11-26T00:03:23.820Z,60.6
2017-11-26T00:04:45.307Z,60.2
2017-11-26T00:05:46.692Z,60.2
2017-11-26T00:07:08.165Z,60.4
2017-11-26T00:08:09.548Z,60.2
2017-11-26T00:09:31.020Z,60.2
2017-11-26T00:10:32.404Z,60.3
2017-11-26T00:11:53.892Z,60.3
2017-11-26T00:12:55.276Z,60.3
2017-11-26T00:14:16.748Z,60.3
2017-11-26T00:15:18.132Z,60.2
2017-11-26T00:16:39.603Z,60.5
2017-11-26T00:17:40.989Z,60.2
2017-11-26T00:19:02.476Z,60.4
2017-11-26T00:20:03.861Z,60.0
2017-11-26T00:21:25.334Z,60.2
2017-11-26T00:22:26.719Z,60.1
2017-11-26T00:23:48.196Z,60.2
2017-11-26T00:24:49.581Z,60.3
2017-11-26T00:26:11.069Z,60.6
2017-11-26T00:27:12.452Z,60.6
2017-11-26T00:28:33.923Z,60.2
2017-11-26T00:29:35.308Z,60.6
2017-11-26T00:30:56.781Z,60.1
2017-11-26T00:31:58.164Z,60.3
2017-11-26T00:33:19.652Z,60.3
2017-11-26T00:34:21.037Z,60.4
2017-11-26T00:35:42.508Z,60.3
2017-11-26T00:36:43.893Z,60.5
2017-11-26T00:38:05.372Z,60.3
2017-11-26T00:39:06.757Z,60.5
2017-11-26T00:40:28.244Z,60.6
2017-11-26T00:41:29.629Z,60.3
2017-11-26T00:42:51.108Z,60.2
2017-11-26T00:43:52.493Z,60.5
2017-11-26T00:45:13.967Z,60.4
2017-11-26T00:46:15.350Z,60.0
2017-11-26T00:47:36.973Z,60.1
2017-11-26T00:48:38.357Z,60.3
2017-11-26T00:49:59.829Z,60.0
2017-11-26T00:51:01.221Z,60.2
2017-11-26T00:52:22.707Z,60.6
2017-11-26T00:53:24.084Z,60.2
2017-11-26T00:54:45.565Z,60.3
2017-11-26T00:55:46.965Z,60.3
2017-11-26T00:57:08.436Z,60.4
2017-11-26T00:58:09.821Z,60.4
2017-11-26T00:59:31.301Z,60.3
2017-11-26T01:00:32.684Z,60.3
2017-11-26T01:01:54.335Z,60.4
2017-11-26T01:02:55.716Z,60.4
2017-11-26T01:04:17.189Z,60.2
2017-11-26T01:05:18.573Z,60.4
2017-11-26T01:06:40.045Z,60.3
2017-11-26T01:07:41.429Z,60.0
2017-11-26T01:09:02.918Z,60.3
2017-11-26T01:10:04.301Z,60.3
2017-11-26T01:11:25.773Z,60.3
2017-11-26T01:12:27.157Z,60.3
2017-11-26T01:13:48.643Z,60.2
2017-11-26T01:14:50.021Z,60.1
2017-11-26T01:16:11.509Z,60.2
2017-11-26T01:17:12.893Z,60.2
2017-11-26T01:18:34.365Z,60.2
2017-11-26T01:19:35.750Z,60.2
2017-11-26T01:20:57.222Z,60.2
2017-11-26T01:21:58.605Z,60.3
2017-11-26T01:23:20.093Z,60.4
2017-11-26T01:24:21.486Z,60.3
2017-11-26T01:25:42.958Z,60.4
2017-11-26T01:26:44.350Z,60.1
2017-11-26T01:28:05.821Z,60.6
2017-11-26T01:29:07.206Z,60.4
2017-11-26T01:30:28.693Z,60.6
2017-11-26T01:31:30.078Z,60.4
2017-11-26T01:32:51.552Z,60.7
2017-11-26T01:33:52.933Z,60.7
2017-11-26T01:35:14.406Z,60.3
2017-11-26T01:36:15.793Z,60.3
2017-11-26T01:37:37.281Z,60.7
2017-11-26T01:38:38.667Z,60.3
2017-11-26T01:40:00.133Z,60.2
2017-11-26T01:41:01.519Z,60.2
2017-11-26T01:42:22.997Z,60.1
2017-11-26T01:43:24.382Z,60.3
2017-11-26T01:44:45.871Z,60.3
2017-11-26T01:45:47.254Z,60.2
2017-11-26T01:47:08.725Z,60.1
2017-11-26T01:48:10.109Z,60.6
2017-11-26T01:49:31.590Z,60.3
2017-11-26T01:50:32.975Z,60.3
2017-11-26T01:51:54.606Z,60.4
2017-11-26T01:52:55.981Z,60.3
2017-11-26T01:54:17.461Z,60.7
2017-11-26T01:55:18.845Z,60.4
2017-11-26T01:56:40.328Z,60.6
2017-11-26T01:57:41.710Z,60.6
2017-11-26T01:59:03.198Z,60.3
2017-11-26T02:00:04.583Z,60.2
2017-11-26T02:01:26.055Z,60.4
2017-11-26T02:02:27.453Z,60.3
2017-11-26T02:03:48.919Z,60.7
2017-11-26T02:04:50.302Z,60.5
2017-11-26T02:06:11.790Z,60.5
2017-11-26T02:07:13.174Z,60.6
2017-11-26T02:08:34.647Z,60.6
2017-11-26T02:09:36.030Z,60.5
2017-11-26T02:10:57.503Z,60.6
2017-11-26T02:11:58.885Z,60.4
2017-11-26T02:13:20.375Z,60.4
2017-11-26T02:14:21.760Z,60.3
2017-11-26T02:15:43.230Z,60.3
2017-11-26T02:16:44.615Z,60.4
2017-11-26T02:18:06.095Z,60.4
2017-11-26T02:19:07.478Z,60.4
2017-11-26T02:20:28.967Z,60.3
2017-11-26T02:21:30.352Z,60.3
2017-11-26T02:22:51.822Z,60.5
2017-11-26T02:23:53.212Z,60.3
2017-11-26T02:25:14.679Z,60.3
2017-11-26T02:26:16.063Z,60.3
2017-11-26T02:27:37.695Z,60.2
2017-11-26T02:28:39.079Z,60.4
2017-11-26T02:30:00.560Z,60.3
2017-11-26T02:31:01.941Z,60.2
2017-11-26T02:32:23.424Z,60.6
2017-11-26T02:33:24.808Z,60.6
2017-11-26T02:34:46.295Z,60.1
2017-11-26T02:35:47.679Z,60.7
2017-11-26T02:37:09.151Z,60.6
2017-11-26T02:38:10.536Z,60.5
2017-11-26T02:39:32.007Z,60.2
2017-11-26T02:40:33.392Z,60.4
2017-11-26T02:41:55.023Z,60.3
2017-11-26T02:42:56.408Z,60.4
2017-11-26T02:44:17.887Z,60.2
2017-11-26T02:45:19.272Z,60.5
2017-11-26T02:46:40.749Z,60.2
2017-11-26T02:47:42.129Z,60.4
2017-11-26T02:49:03.616Z,60.4
2017-11-26T02:50:04.999Z,60.4
2017-11-26T02:51:26.470Z,60.2
2017-11-26T02:52:27.860Z,60.2
2017-11-26T02:53:49.328Z,60.4
2017-11-26T02:54:50.711Z,60.4
2017-11-26T02:56:12.199Z,60.3
2017-11-26T02:57:13.585Z,60.2
2017-11-26T02:58:35.056Z,60.5
2017-11-26T02:59:36.439Z,60.3
2017-11-26T03:00:57.912Z,60.4
2017-11-26T03:01:59.295Z,60.4
2017-11-26T03:03:20.784Z,60.4
2017-11-26T03:04:22.167Z,60.7
2017-11-26T03:05:43.641Z,60.5
2017-11-26T03:06:45.024Z,60.3
2017-11-26T03:08:06.500Z,60.4
2017-11-26T03:09:07.879Z,60.3
2017-11-26T03:10:29.447Z,60.3
2017-11-26T03:11:30.832Z,60.4
2017-11-26T03:12:52.304Z,60.5
2017-11-26T03:13:53.689Z,60.2
2017-11-26T03:15:15.162Z,60.3
2017-11-26T03:16:16.548Z,60.1
2017-11-26T03:17:38.033Z,60.4
2017-11-26T03:18:39.416Z,60.2
2017-11-26T03:20:00.889Z,60.3
2017-11-26T03:21:02.272Z,60.2
2017-11-26T03:22:23.745Z,60.4
2017-11-26T03:23:25.127Z,60.3
2017-11-26T03:24:46.616Z,60.2
2017-11-26T03:25:48.000Z,60.2
2017-11-26T03:27:09.473Z,60.3
2017-11-26T03:28:10.855Z,60.3
2017-11-26T03:29:32.327Z,60.3
2017-11-26T03:30:33.713Z,60.4
2017-11-26T03:31:55.200Z,60.7
2017-11-26T03:32:56.584Z,60.2
2017-11-26T03:34:18.056Z,60.4
2017-11-26T03:35:19.440Z,60.4
2017-11-26T03:36:40.912Z,60.4
2017-11-26T03:37:42.297Z,60.3
2017-11-26T03:39:03.942Z,60.3
2017-11-26T03:40:05.328Z,60.1
2017-11-26T03:41:26.800Z,60.1
2017-11-26T03:42:28.184Z,60.2
2017-11-26T03:43:49.655Z,60.3
2017-11-26T03:44:51.041Z,60.3
2017-11-26T03:46:12.673Z,60.3
2017-11-26T03:47:14.057Z,60.2
2017-11-26T03:48:35.537Z,60.1
2017-11-26T03:49:36.912Z,60.4
2017-11-26T03:50:58.392Z,60.2
2017-11-26T03:51:59.776Z,60.5
2017-11-26T03:53:21.344Z,60.2
2017-11-26T03:54:22.729Z,60.6
2017-11-26T03:55:44.201Z,60.2
2017-11-26T03:56:45.585Z,60.3
2017-11-26T03:58:07.065Z,60.1
2017-11-26T03:59:08.449Z,60.3
2017-11-26T04:00:29.937Z,60.6
2017-11-26T04:01:31.322Z,60.3
2017-11-26T04:02:52.798Z,60.3
2017-11-26T04:03:54.176Z,60.2
2017-11-26T04:05:15.657Z,60.2
2017-11-26T04:06:17.041Z,60.2
2017-11-26T04:07:38.673Z,60.3
2017-11-26T04:08:40.057Z,60.4
2017-11-26T04:10:01.537Z,60.0
2017-11-26T04:11:02.921Z,60.1
2017-11-26T04:12:24.392Z,60.2
2017-11-26T04:13:25.777Z,60.3
2017-11-26T04:14:47.265Z,60.3
2017-11-26T04:15:48.649Z,60.3
2017-11-26T04:17:10.123Z,60.2
2017-11-26T04:18:11.506Z,60.3
2017-11-26T04:19:32.985Z,60.4
2017-11-26T04:20:34.369Z,60.3
2017-11-26T04:21:55.866Z,60.3
2017-11-26T04:22:57.249Z,60.2
2017-11-26T04:24:18.721Z,60.3
2017-11-26T04:25:20.105Z,60.1
2017-11-26T04:26:41.578Z,60.1
2017-11-26T04:27:42.965Z,60.4
2017-11-26T04:29:04.593Z,60.3
2017-11-26T04:30:05.980Z,60.2
2017-11-26T04:31:27.449Z,60.7
2017-11-26T04:32:28.833Z,60.3
2017-11-26T04:33:50.317Z,60.7
2017-11-26T04:34:51.707Z,60.2
2017-11-26T04:36:13.191Z,60.3
2017-11-26T04:37:14.575Z,60.0
2017-11-26T04:38:36.042Z,60.3
2017-11-26T04:39:37.425Z,60.3
2017-11-26T04:40:58.905Z,60.4
2017-11-26T04:42:00.290Z,60.7
2017-11-26T04:43:21.779Z,60.5
2017-11-26T04:44:23.162Z,60.7
2017-11-26T04:45:44.634Z,60.5
2017-11-26T04:46:46.026Z,60.7
2017-11-26T04:48:07.498Z,60.3
2017-11-26T04:49:08.881Z,60.7
2017-11-26T04:50:30.506Z,60.2
2017-11-26T04:51:31.893Z,60.2
2017-11-26T04:52:53.362Z,60.2
2017-11-26T04:53:54.758Z,60.3
2017-11-26T04:55:16.218Z,60.4
2017-11-26T04:56:17.602Z,60.2
2017-11-26T04:57:39.242Z,60.0
2017-11-26T04:58:40.627Z,60.5
2017-11-26T05:00:02.101Z,60.1
2017-11-26T05:01:03.504Z,60.4
2017-11-26T05:02:24.963Z,60.3
2017-11-26T05:03:26.346Z,60.3
2017-11-26T05:04:48.035Z,60.3
2017-11-26T05:05:49.418Z,60.1
2017-11-26T05:07:10.890Z,60.3
2017-11-26T05:08:12.275Z,60.3
2017-11-26T05:09:33.746Z,60.1
2017-11-26T05:10:35.131Z,60.2
2017-11-26T05:11:56.791Z,60.4
2017-11-26T05:12:58.147Z,60.7
2017-11-26T05:14:19.627Z,60.4
2017-11-26T05:15:21.010Z,60.4
2017-11-26T05:16:42.482Z,60.4
2017-11-26T05:17:43.866Z,60.4
2017-11-26T05:19:05.498Z,60.5
2017-11-26T05:20:06.883Z,60.5
2017-11-26T05:21:28.355Z,60.5
2017-11-26T05:22:29.746Z,60.4
2017-11-26T05:23:51.219Z,60.6
2017-11-26T05:24:52.603Z,60.6
2017-11-26T05:26:14.090Z,60.5
2017-11-26T05:27:15.475Z,60.5
2017-11-26T05:28:36.948Z,60.7
2017-11-26T05:29:38.343Z,60.7
2017-11-26T05:30:59.811Z,60.4
2017-11-26T05:32:01.195Z,60.3
2017-11-26T05:33:22.773Z,60.5
2017-11-26T05:34:24.160Z,60.1
2017-11-26T05:35:45.618Z,60.3
2017-11-26T05:36:47.003Z,60.2
2017-11-26T05:38:08.475Z,60.2
2017-11-26T05:39:09.859Z,60.2
2017-11-26T05:40:31.490Z,60.1
2017-11-26T05:41:32.874Z,60.0
2017-11-26T05:42:54.346Z,59.9
2017-11-26T05:43:55.731Z,60.0
2017-11-26T05:45:17.207Z,60.0
2017-11-26T05:46:18.587Z,59.8
2017-11-26T05:47:40.210Z,59.8
2017-11-26T05:48:41.595Z,60.0
2017-11-26T05:50:03.067Z,60.0
2017-11-26T05:51:04.450Z,60.3
2017-11-26T05:52:25.923Z,60.1
2017-11-26T05:53:27.308Z,60.2
2017-11-26T05:54:48.795Z,60.2
2017-11-26T05:55:50.180Z,60.3
2017-11-26T05:57:11.652Z,60.6
2017-11-26T05:58:13.036Z,60.2
2017-11-26T05:59:34.513Z,60.2
2017-11-26T06:00:35.892Z,60.3
2017-11-26T06:01:57.518Z,60.5
2017-11-26T06:02:58.899Z,60.6
2017-11-26T06:04:20.372Z,60.5
2017-11-26T06:05:21.755Z,60.4
2017-11-26T06:06:43.234Z,60.5
2017-11-26T06:07:44.619Z,60.6
2017-11-26T06:09:06.107Z,60.3
2017-11-26T06:10:07.492Z,60.5
2017-11-26T06:11:28.963Z,60.1
2017-11-26T06:12:30.348Z,60.3
2017-11-26T06:13:51.819Z,60.1
2017-11-26T06:14:53.203Z,60.3
2017-11-26T06:16:14.828Z,60.1
2017-11-26T06:17:16.211Z,60.4
2017-11-26T06:18:37.684Z,60.6
2017-11-26T06:19:39.068Z,60.4
2017-11-26T06:21:00.540Z,60.5
2017-11-26T06:22:01.924Z,60.7
2017-11-26T06:23:23.413Z,60.2
2017-11-26T06:24:24.795Z,60.5
2017-11-26T06:25:46.268Z,60.3
2017-11-26T06:26:47.651Z,60.2
2017-11-26T06:28:09.124Z,60.2
2017-11-26T06:29:10.513Z,60.2
2017-11-26T06:30:32.156Z,60.0
2017-11-26T06:31:33.541Z,60.1
2017-11-26T06:32:55.029Z,59.7
2017-11-26T06:33:56.404Z,59.7
2017-11-26T06:35:17.875Z,59.7
2017-11-26T06:36:19.261Z,59.6
2017-11-26T06:37:40.750Z,59.9
2017-11-26T06:38:42.132Z,59.7
2017-11-26T06:40:03.604Z,59.9
2017-11-26T06:41:04.988Z,59.7
2017-11-26T06:42:26.459Z,60.1
2017-11-26T06:43:27.852Z,59.9
2017-11-26T06:44:49.341Z,60.0
2017-11-26T06:45:50.723Z,60.1
2017-11-26T06:47:12.196Z,59.8
2017-11-26T06:48:13.581Z,60.3
2017-11-26T06:49:35.053Z,60.3
2017-11-26T06:50:36.436Z,60.0
2017-11-26T06:51:58.069Z,60.5
2017-11-26T06:52:59.452Z,60.3
2017-11-26T06:54:20.924Z,60.0
2017-11-26T06:55:22.308Z,60.2
2017-11-26T06:56:43.789Z,60.3
2017-11-26T06:57:45.173Z,60.4
2017-11-26T06:59:06.661Z,60.5
2017-11-26T07:00:08.045Z,60.4
2017-11-26T07:01:29.517Z,60.5
2017-11-26T07:02:30.909Z,60.1
2017-11-26T07:03:52.381Z,60.2
2017-11-26T07:04:53.766Z,60.1
2017-11-26T07:06:15.252Z,60.4
2017-11-26T07:07:16.637Z,60.7
2017-11-26T07:08:38.109Z,60.2
2017-11-26T07:09:39.501Z,60.5
2017-11-26T07:11:00.973Z,60.3
2017-11-26T07:12:02.356Z,60.3
2017-11-26T07:13:23.989Z,60.4
2017-11-26T07:14:25.372Z,60.1
2017-11-26T07:15:46.845Z,60.1
2017-11-26T07:16:48.229Z,60.0
2017-11-26T07:18:09.701Z,60.2
2017-11-26T07:19:11.085Z,60.3
2017-11-26T07:20:32.572Z,59.9
2017-11-26T07:21:33.957Z,60.0
2017-11-26T07:22:55.429Z,59.9
2017-11-26T07:23:56.813Z,60.0
2017-11-26T07:25:18.295Z,59.8
2017-11-26T07:26:19.678Z,59.7
2017-11-26T07:27:41.316Z,59.6
2017-11-26T07:28:42.693Z,59.7
2017-11-26T07:30:04.173Z,59.7
2017-11-26T07:31:05.559Z,59.6
2017-11-26T07:32:27.036Z,59.7
2017-11-26T07:33:28.422Z,59.7
2017-11-26T07:34:50.045Z,59.5
2017-11-26T07:35:51.429Z,60.0
2017-11-26T07:37:12.909Z,59.6
2017-11-26T07:38:14.293Z,59.9
2017-11-26T07:39:35.765Z,59.9
2017-11-26T07:40:37.148Z,60.0
2017-11-26T07:41:58.644Z,60.3
2017-11-26T07:43:00.029Z,60.3
2017-11-26T07:44:21.501Z,60.2
2017-11-26T07:45:22.885Z,60.2
2017-11-26T07:46:44.366Z,60.3
2017-11-26T07:47:45.749Z,60.4
2017-11-26T07:49:07.238Z,60.3
2017-11-26T07:50:08.620Z,60.2
2017-11-26T07:51:30.093Z,60.0
2017-11-26T07:52:31.478Z,60.4
2017-11-26T07:53:52.959Z,60.6
2017-11-26T07:54:54.341Z,60.5
2017-11-26T07:56:15.970Z,60.6
2017-11-26T07:57:17.357Z,60.2
2017-11-26T07:58:38.837Z,60.3
2017-11-26T07:59:40.222Z,60.2
2017-11-26T08:01:01.694Z,60.2
2017-11-26T08:02:03.078Z,60.1
2017-11-26T08:03:24.566Z,60.1
2017-11-26T08:04:25.949Z,60.1
2017-11-26T08:05:47.428Z,60.1
2017-11-26T08:06:48.814Z,60.2
2017-11-26T08:08:10.286Z,60.6
2017-11-26T08:09:11.670Z,60.2
2017-11-26T08:10:33.300Z,60.1
2017-11-26T08:11:34.678Z,60.1
2017-11-26T08:12:56.158Z,60.1
2017-11-26T08:13:57.638Z,60.3
2017-11-26T08:15:19.110Z,59.9
2017-11-26T08:16:20.496Z,60.2
2017-11-26T08:17:41.983Z,59.9
2017-11-26T08:18:43.371Z,60.0
2017-11-26T08:20:04.839Z,59.8
2017-11-26T08:21:06.222Z,60.0
2017-11-26T08:22:27.707Z,60.0
2017-11-26T08:23:29.086Z,60.1
2017-11-26T08:24:50.710Z,60.2
2017-11-26T08:25:52.097Z,60.0
2017-11-26T08:27:13.574Z,59.7
2017-11-26T08:28:14.958Z,60.0
2017-11-26T08:29:36.439Z,59.4
2017-11-26T08:30:37.822Z,59.8
2017-11-26T08:31:59.318Z,59.9
2017-11-26T08:33:00.704Z,59.8
2017-11-26T08:34:22.166Z,59.6
2017-11-26T08:35:23.550Z,59.5
2017-11-26T08:36:45.029Z,59.6
2017-11-26T08:37:46.416Z,59.7
2017-11-26T08:39:08.046Z,59.8
2017-11-26T08:40:09.430Z,59.5
2017-11-26T08:41:30.910Z,59.9
2017-11-26T08:42:32.295Z,59.5
2017-11-26T08:43:53.775Z,59.6
2017-11-26T08:44:55.163Z,59.8
2017-11-26T08:46:16.791Z,59.9
2017-11-26T08:47:18.210Z,59.8
2017-11-26T08:48:39.647Z,59.9
2017-11-26T08:49:41.031Z,60.0
2017-11-26T08:51:02.511Z,58.3
2017-11-26T08:52:03.896Z,59.1
2017-11-26T08:53:25.535Z,59.6
2017-11-26T08:54:26.928Z,59.7
2017-11-26T08:55:48.399Z,59.8
2017-11-26T08:56:49.783Z,58.5
2017-11-26T08:58:11.263Z,58.6
2017-11-26T08:59:12.647Z,59.3
2017-11-26T09:00:34.135Z,59.0
2017-11-26T09:01:35.524Z,59.0
2017-11-26T09:02:56.992Z,59.1
2017-11-26T09:03:58.393Z,59.1
2017-11-26T09:05:19.856Z,59.1
2017-11-26T09:06:21.247Z,59.0
2017-11-26T09:07:42.735Z,59.3
2017-11-26T09:08:44.118Z,59.1
2017-11-26T09:10:05.599Z,59.0
2017-11-26T09:11:06.983Z,59.4
2017-11-26T09:12:28.464Z,59.3
2017-11-26T09:13:29.848Z,59.1
2017-11-26T09:14:51.335Z,59.1
2017-11-26T09:15:52.720Z,59.0
2017-11-26T09:17:14.191Z,59.1
2017-11-26T09:18:15.584Z,59.1
2017-11-26T09:19:37.064Z,59.4
2017-11-26T09:20:38.447Z,59.3
2017-11-26T09:22:00.081Z,59.1
2017-11-26T09:23:01.464Z,59.3
2017-11-26T09:24:22.944Z,59.3
2017-11-26T09:25:24.335Z,59.3
2017-11-26T09:26:45.807Z,59.3
2017-11-26T09:27:47.200Z,59.3
2017-11-26T09:29:08.688Z,59.5
2017-11-26T09:30:10.072Z,59.3
2017-11-26T09:31:31.543Z,59.1
2017-11-26T09:32:32.936Z,59.1
2017-11-26T09:33:54.415Z,59.1
2017-11-26T09:34:55.803Z,59.1
2017-11-26T09:36:17.295Z,59.2
2017-11-26T09:37:18.680Z,59.2
2017-11-26T09:38:40.160Z,59.1
2017-11-26T09:39:41.544Z,59.1
2017-11-26T09:41:03.024Z,58.9
2017-11-26T09:42:04.408Z,59.0
2017-11-26T09:43:26.040Z,59.2
2017-11-26T09:44:27.424Z,59.0
2017-11-26T09:45:48.895Z,59.3
2017-11-26T09:46:50.288Z,59.1
2017-11-26T09:48:11.769Z,59.0
2017-11-26T09:49:13.152Z,58.7
2017-11-26T09:50:34.641Z,59.0
2017-11-26T09:51:36.025Z,59.0
2017-11-26T09:52:57.496Z,58.7
2017-11-26T09:53:58.881Z,59.0
2017-11-26T09:55:20.353Z,59.0
2017-11-26T09:56:21.744Z,59.0
2017-11-26T09:57:43.232Z,59.1
2017-11-26T09:58:44.615Z,59.0
2017-11-26T10:00:06.097Z,59.1
2017-11-26T10:01:07.480Z,59.0
2017-11-26T10:02:28.953Z,59.1
2017-11-26T10:03:30.336Z,58.5
2017-11-26T10:04:51.825Z,59.0
2017-11-26T10:05:53.208Z,58.5
2017-11-26T10:07:14.680Z,58.9
2017-11-26T10:08:16.078Z,58.5
2017-11-26T10:09:37.552Z,59.0
2017-11-26T10:10:38.937Z,58.8
2017-11-26T10:12:00.425Z,58.3
2017-11-26T10:13:01.809Z,58.5
2017-11-26T10:14:23.280Z,58.9
2017-11-26T10:15:24.665Z,59.0
2017-11-26T10:16:46.144Z,59.0
2017-11-26T10:17:47.528Z,59.1
2017-11-26T10:19:09.024Z,58.5
2017-11-26T10:20:10.401Z,58.9
2017-11-26T10:21:31.873Z,59.1
2017-11-26T10:22:33.257Z,58.9
2017-11-26T10:23:54.737Z,58.9
2017-11-26T10:24:56.121Z,58.8
2017-11-26T10:26:17.617Z,58.7
2017-11-26T10:27:19.001Z,58.8
2017-11-26T10:28:40.480Z,58.9
2017-11-26T10:29:41.865Z,58.7
2017-11-26T10:31:03.336Z,59.0
2017-11-26T10:32:04.729Z,58.8
2017-11-26T10:33:26.221Z,58.9
2017-11-26T10:34:27.601Z,58.3
2017-11-26T10:35:49.081Z,58.9
2017-11-26T10:36:50.465Z,58.7
2017-11-26T10:38:11.945Z,58.4
2017-11-26T10:39:13.343Z,58.6
2017-11-26T10:40:34.819Z,58.7
2017-11-26T10:41:36.201Z,58.5
2017-11-26T10:42:57.681Z,58.3
2017-11-26T10:43:59.066Z,58.6
2017-11-26T10:45:20.546Z,58.4
2017-11-26T10:46:21.929Z,58.4
2017-11-26T10:47:43.417Z,58.6
2017-11-26T10:48:44.810Z,58.4
2017-11-26T10:50:06.289Z,58.7
2017-11-26T10:51:07.673Z,58.6
2017-11-26T10:52:29.152Z,58.7
2017-11-26T10:53:30.538Z,58.4
2017-11-26T10:54:52.025Z,58.4
2017-11-26T10:55:53.418Z,58.5
2017-11-26T10:57:14.882Z,58.3
2017-11-26T10:58:16.274Z,58.8
2017-11-26T10:59:37.754Z,58.6
2017-11-26T11:00:39.137Z,58.6
2017-11-26T11:02:00.626Z,58.8
2017-11-26T11:03:02.017Z,59.0
2017-11-26T11:04:23.490Z,58.3
2017-11-26T11:05:24.881Z,58.8
2017-11-26T11:06:46.354Z,58.8
2017-11-26T11:07:47.738Z,59.0
2017-11-26T11:09:09.226Z,58.6
2017-11-26T11:10:10.609Z,59.1
2017-11-26T11:11:32.082Z,56.9
2017-11-26T11:12:33.477Z,56.5
2017-11-26T11:13:54.954Z,56.5
2017-11-26T11:14:56.337Z,56.8
2017-11-26T11:16:17.825Z,58.0
2017-11-26T11:17:19.210Z,58.5
2017-11-26T11:18:40.690Z,58.7
2017-11-26T11:19:42.074Z,58.9
2017-11-26T11:21:03.547Z,59.0
2017-11-26T11:22:04.941Z,58.7
2017-11-26T11:23:26.426Z,58.8
2017-11-26T11:24:27.809Z,58.8
2017-11-26T11:25:49.283Z,59.0
2017-11-26T11:26:50.674Z,59.1
2017-11-26T11:28:12.146Z,59.0
2017-11-26T11:29:13.539Z,58.9
2017-11-26T11:30:35.027Z,59.3
2017-11-26T11:31:36.415Z,59.3
2017-11-26T11:32:57.890Z,59.3
2017-11-26T11:33:59.274Z,59.4
2017-11-26T11:35:20.755Z,59.4
2017-11-26T11:36:22.146Z,59.9
2017-11-26T11:37:43.771Z,59.6
2017-11-26T11:38:45.154Z,59.7
2017-11-26T11:40:06.634Z,59.8
2017-11-26T11:41:08.026Z,59.7
2017-11-26T11:42:29.512Z,59.7
2017-11-26T11:43:30.890Z,59.6
2017-11-26T11:44:52.685Z,59.7
2017-11-26T11:45:54.052Z,59.8
2017-11-26T11:47:15.523Z,59.8
2017-11-26T11:48:16.917Z,59.8
2017-11-26T11:49:38.394Z,59.4
2017-11-26T11:50:39.779Z,59.4
2017-11-26T11:52:01.267Z,59.6
2017-11-26T11:53:02.651Z,59.6
2017-11-26T11:54:24.123Z,59.7
2017-11-26T11:55:25.515Z,60.0
2017-11-26T11:56:46.992Z,60.5
2017-11-26T11:57:48.378Z,60.3
2017-11-26T11:59:09.867Z,60.5
2017-11-26T12:00:11.250Z,60.6
2017-11-26T12:01:32.722Z,60.3
2017-11-26T12:02:34.115Z,60.5
2017-11-26T12:03:55.587Z,60.7
2017-11-26T12:04:56.979Z,60.3
2017-11-26T12:06:18.467Z,60.1
2017-11-26T12:07:19.851Z,60.2
2017-11-26T12:08:41.326Z,60.0
2017-11-26T12:09:42.715Z,60.0
2017-11-26T12:11:04.195Z,59.5
2017-11-26T12:12:05.582Z,59.4
2017-11-26T12:13:27.204Z,59.9
2017-11-26T12:14:28.588Z,60.0
2017-11-26T12:15:50.059Z,59.2
2017-11-26T12:16:51.451Z,59.4
2017-11-26T12:18:12.932Z,59.0
2017-11-26T12:19:14.315Z,58.9
2017-11-26T12:20:35.803Z,59.0
2017-11-26T12:21:37.188Z,59.1
2017-11-26T12:22:58.659Z,59.2
2017-11-26T12:24:00.052Z,59.2
2017-11-26T12:25:21.539Z,59.1
2017-11-26T12:26:22.916Z,59.1
2017-11-26T12:27:44.407Z,59.4
2017-11-26T12:28:45.787Z,59.3
2017-11-26T12:30:07.260Z,59.1
2017-11-26T12:31:08.652Z,59.3
2017-11-26T12:32:30.131Z,59.2
2017-11-26T12:33:31.516Z,59.3
2017-11-26T12:34:53.148Z,59.1
2017-11-26T12:35:54.532Z,59.1
2017-11-26T12:37:16.012Z,58.9
2017-11-26T12:38:17.395Z,59.3
2017-11-26T12:39:38.871Z,59.3
2017-11-26T12:40:40.260Z,59.4
2017-11-26T12:42:01.749Z,59.8
2017-11-26T12:43:03.132Z,59.8
2017-11-26T12:44:24.616Z,60.0
2017-11-26T12:45:25.996Z,59.8
2017-11-26T12:46:47.476Z,59.4
2017-11-26T12:47:48.860Z,59.0
2017-11-26T12:49:10.350Z,59.0
2017-11-26T12:50:11.740Z,59.1
2017-11-26T12:51:33.212Z,59.0
2017-11-26T12:52:34.605Z,59.3
2017-11-26T12:53:56.076Z,59.4
2017-11-26T12:54:57.468Z,59.4
2017-11-26T12:56:18.956Z,59.0
2017-11-26T12:57:20.340Z,59.1
2017-11-26T12:58:41.816Z,59.5
2017-11-26T12:59:43.213Z,59.2
2017-11-26T13:01:04.683Z,59.1
2017-11-26T13:02:06.068Z,59.5
2017-11-26T13:03:27.556Z,59.4
2017-11-26T13:04:28.945Z,59.8
2017-11-26T13:05:50.412Z,59.7
2017-11-26T13:06:51.804Z,59.7
2017-11-26T13:08:13.284Z,59.7
2017-11-26T13:09:14.669Z,59.6
2017-11-26T13:10:36.157Z,59.8
2017-11-26T13:11:37.541Z,59.8
2017-11-26T13:12:59.021Z,59.4
2017-11-26T13:14:00.405Z,58.9
2017-11-26T13:15:21.886Z,59.1
2017-11-26T13:16:23.277Z,59.1
2017-11-26T13:17:44.765Z,59.1
2017-11-26T13:18:46.149Z,59.1
2017-11-26T13:20:07.629Z,59.1
2017-11-26T13:21:09.013Z,59.2
2017-11-26T13:22:30.484Z,59.1
2017-11-26T13:23:31.877Z,59.2
2017-11-26T13:24:53.364Z,59.4
2017-11-26T13:25:54.749Z,59.3
2017-11-26T13:27:16.265Z,59.4
2017-11-26T13:28:17.613Z,59.3
2017-11-26T13:29:39.093Z,59.5
2017-11-26T13:30:40.477Z,59.2
2017-11-26T13:32:01.966Z,59.1
2017-11-26T13:33:03.349Z,59.6
2017-11-26T13:34:24.821Z,59.7
2017-11-26T13:35:26.212Z,59.2
2017-11-26T13:36:47.685Z,59.2
2017-11-26T13:37:49.077Z,59.3
2017-11-26T13:39:10.564Z,59.0
2017-11-26T13:40:11.949Z,59.1
2017-11-26T13:41:33.428Z,59.2
2017-11-26T13:42:34.817Z,59.2
2017-11-26T13:43:56.290Z,59.0
2017-11-26T13:44:57.678Z,59.1
2017-11-26T13:46:19.301Z,59.2
2017-11-26T13:47:20.685Z,59.1
2017-11-26T13:48:42.166Z,58.9
2017-11-26T13:49:43.549Z,59.2
2017-11-26T13:51:05.021Z,59.3
2017-11-26T13:52:06.416Z,59.1
2017-11-26T13:53:27.901Z,59.3
2017-11-26T13:54:29.285Z,59.0
2017-11-26T13:55:50.758Z,59.0
2017-11-26T13:56:52.153Z,59.1
2017-11-26T13:58:13.636Z,58.8
2017-11-26T13:59:15.013Z,58.8
2017-11-26T14:00:36.501Z,58.6
2017-11-26T14:01:37.885Z,58.8
2017-11-26T14:02:59.365Z,58.5
2017-11-26T14:04:00.757Z,58.5
2017-11-26T14:05:22.241Z,58.3
2017-11-26T14:06:23.622Z,58.5
2017-11-26T14:07:45.116Z,58.5
2017-11-26T14:08:46.494Z,58.2
2017-11-26T14:10:07.974Z,58.3
2017-11-26T14:11:09.358Z,58.2
2017-11-26T14:12:30.829Z,58.1
2017-11-26T14:13:32.222Z,57.9
2017-11-26T14:14:53.718Z,58.3
2017-11-26T14:15:55.102Z,58.1
2017-11-26T14:17:16.583Z,57.6
2017-11-26T14:18:17.968Z,57.9
2017-11-26T14:19:39.446Z,57.6
2017-11-26T14:20:40.831Z,57.6
2017-11-26T14:22:02.318Z,57.6
2017-11-26T14:23:03.702Z,57.6
2017-11-26T14:24:25.174Z,57.7
2017-11-26T14:25:26.566Z,57.2
2017-11-26T14:26:48.038Z,57.0
2017-11-26T14:27:49.440Z,57.4
2017-11-26T14:29:10.919Z,57.0
2017-11-26T14:30:12.302Z,57.0
2017-11-26T14:31:33.774Z,57.0
2017-11-26T14:32:35.166Z,57.0
2017-11-26T14:33:56.649Z,57.1
2017-11-26T14:34:58.030Z,56.9
2017-11-26T14:36:19.519Z,57.2
2017-11-26T14:37:20.902Z,56.8
2017-11-26T14:38:42.375Z,56.9
2017-11-26T14:39:43.767Z,57.0
2017-11-26T14:41:05.239Z,56.9
2017-11-26T14:42:06.631Z,56.9
2017-11-26T14:43:28.125Z,56.5
2017-11-26T14:44:29.503Z,56.6
2017-11-26T14:45:50.983Z,56.5
2017-11-26T14:46:52.367Z,56.5
2017-11-26T14:48:13.851Z,56.2
2017-11-26T14:49:15.231Z,56.2
2017-11-26T14:50:36.720Z,56.4
2017-11-26T14:51:38.103Z,56.6
2017-11-26T14:52:59.575Z,56.1
2017-11-26T14:54:00.959Z,56.4
2017-11-26T14:55:22.527Z,56.0
2017-11-26T14:56:23.919Z,55.9
2017-11-26T14:57:45.407Z,56.0
2017-11-26T14:58:46.790Z,56.2
2017-11-26T15:00:08.263Z,55.7
2017-11-26T15:01:09.648Z,55.8
2017-11-26T15:02:31.119Z,56.0
2017-11-26T15:03:32.503Z,56.0
2017-11-26T15:04:53.999Z,56.1
2017-11-26T15:05:55.383Z,56.1
2017-11-26T15:07:16.862Z,55.9
2017-11-26T15:08:18.247Z,55.7
2017-11-26T15:09:39.720Z,56.2
2017-11-26T15:10:41.106Z,55.8
2017-11-26T15:12:02.583Z,56.1
2017-11-26T15:13:03.968Z,56.0
2017-11-26T15:14:25.446Z,55.9
2017-11-26T15:15:26.823Z,56.0
2017-11-26T15:16:48.304Z,55.9
2017-11-26T15:17:49.688Z,55.9
2017-11-26T15:19:11.175Z,55.8
2017-11-26T15:20:12.559Z,55.9
2017-11-26T15:21:34.041Z,55.7
2017-11-26T15:22:35.424Z,55.5
2017-11-26T15:23:56.896Z,55.5
2017-11-26T15:24:58.280Z,55.6
2017-11-26T15:26:19.767Z,55.8
2017-11-26T15:27:21.151Z,55.5
2017-11-26T15:28:42.623Z,55.7
2017-11-26T15:29:44.194Z,55.7
2017-11-26T15:31:05.552Z,55.5
2017-11-26T15:32:06.936Z,55.7
2017-11-26T15:33:28.560Z,55.7
2017-11-26T15:34:29.944Z,55.5
2017-11-26T15:35:51.423Z,55.4
2017-11-26T15:36:52.800Z,55.3
2017-11-26T15:38:14.272Z,55.6
2017-11-26T15:39:15.657Z,54.8
2017-11-26T15:40:37.144Z,55.2
2017-11-26T15:41:38.527Z,55.2
2017-11-26T15:42:59.999Z,55.0
2017-11-26T15:44:01.385Z,55.1
2017-11-26T15:45:22.856Z,55.0
2017-11-26T15:46:24.240Z,55.0
2017-11-26T15:47:45.728Z,55.2
2017-11-26T15:48:47.116Z,55.2
2017-11-26T15:50:08.584Z,55.0
2017-11-26T15:51:09.968Z,55.0